Terminal Aerodrome Forecast
Issued by NWS

Home | Current Version | Previous Version | Text Only | Print | Product List | Glossary On
Versions: 1 2 3 4 5 6 7 8 9 10 11 12 13 14 15 16 17 18 19 20 21 22 23 24 25 26 27 28
610
FTUS45 KSLC 210941 AAA
TAFHCR
TAF AMD
KHCR 210941Z 2110/2206 00000KT P6SM BKN005
      TEMPO 2111/2115 1SM BR BKN001
     FM211600 24005KT P6SM FEW050
     FM220100 00000KT P6SM SKC=

USA.gov is the U.S. government's official web portal to all federal, state and local government web resources and services.